sensor_id;sensor_type;location;lat;lon;timestamp;P1;durP1;ratioP1;P2;durP2;ratioP2
13349;SDS011;6744;53.190;6.576;2023-05-10T00:00:39;12.27;;;11.27;;
13349;SDS011;6744;53.190;6.576;2023-05-10T00:03:04;9.47;;;8.80;;
13349;SDS011;6744;53.190;6.576;2023-05-10T00:05:30;8.73;;;8.13;;
13349;SDS011;6744;53.190;6.576;2023-05-10T00:07:56;8.83;;;8.23;;
13349;SDS011;6744;53.190;6.576;2023-05-10T00:10:21;9.40;;;8.70;;
13349;SDS011;6744;53.190;6.576;2023-05-10T00:12:47;9.20;;;8.50;;
13349;SDS011;6744;53.190;6.576;2023-05-10T00:15:12;10.33;;;9.53;;
13349;SDS011;6744;53.190;6.576;2023-05-10T00:17:37;8.87;;;8.27;;
13349;SDS011;6744;53.190;6.576;2023-05-10T00:20:04;9.20;;;8.50;;
13349;SDS011;6744;53.190;6.576;2023-05-10T00:22:30;11.23;;;10.33;;
13349;SDS011;6744;53.190;6.576;2023-05-10T00:24:56;9.07;;;8.37;;
13349;SDS011;6744;53.190;6.576;2023-05-10T00:27:21;8.30;;;7.70;;
13349;SDS011;6744;53.190;6.576;2023-05-10T00:29:47;8.43;;;7.83;;
13349;SDS011;6744;53.190;6.576;2023-05-10T00:32:12;7.20;;;6.70;;
13349;SDS011;6744;53.190;6.576;2023-05-10T00:34:39;7.27;;;6.77;;
13349;SDS011;6744;53.190;6.576;2023-05-10T00:37:04;7.70;;;7.10;;
13349;SDS011;6744;53.190;6.576;2023-05-10T00:39:30;7.40;;;6.80;;
13349;SDS011;6744;53.190;6.576;2023-05-10T00:41:55;9.00;;;8.30;;
13349;SDS011;6744;53.190;6.576;2023-05-10T00:44:21;6.90;;;6.40;;
13349;SDS011;6744;53.190;6.576;2023-05-10T00:46:46;8.23;;;7.53;;
13349;SDS011;6744;53.190;6.576;2023-05-10T00:49:13;6.93;;;6.43;;
13349;SDS011;6744;53.190;6.576;2023-05-10T00:51:38;6.40;;;5.90;;
13349;SDS011;6744;53.190;6.576;2023-05-10T00:54:04;6.80;;;6.30;;
13349;SDS011;6744;53.190;6.576;2023-05-10T00:56:30;6.90;;;6.40;;
13349;SDS011;6744;53.190;6.576;2023-05-10T00:58:55;5.77;;;5.37;;
13349;SDS011;6744;53.190;6.576;2023-05-10T01:01:21;7.33;;;6.83;;
13349;SDS011;6744;53.190;6.576;2023-05-10T01:03:46;6.13;;;5.73;;
13349;SDS011;6744;53.190;6.576;2023-05-10T01:06:12;6.30;;;5.83;;
13349;SDS011;6744;53.190;6.576;2023-05-10T01:08:37;5.77;;;5.37;;
13349;SDS011;6744;53.190;6.576;2023-05-10T01:11:04;6.90;;;6.40;;
13349;SDS011;6744;53.190;6.576;2023-05-10T01:13:39;6.60;;;6.17;;
13349;SDS011;6744;53.190;6.576;2023-05-10T01:16:06;8.43;;;7.73;;
13349;SDS011;6744;53.190;6.576;2023-05-10T01:18:35;6.53;;;6.07;;
13349;SDS011;6744;53.190;6.576;2023-05-10T01:43:28;6.73;;;6.23;;
13349;SDS011;6744;53.190;6.576;2023-05-10T01:48:35;6.80;;;6.30;;
13349;SDS011;6744;53.190;6.576;2023-05-10T01:51:12;7.37;;;6.83;;
13349;SDS011;6744;53.190;6.576;2023-05-10T01:53:41;8.97;;;8.17;;
13349;SDS011;6744;53.190;6.576;2023-05-10T01:56:07;6.97;;;6.43;;
13349;SDS011;6744;53.190;6.576;2023-05-10T01:58:33;7.57;;;7.07;;
13349;SDS011;6744;53.190;6.576;2023-05-10T02:01:01;7.77;;;7.17;;
13349;SDS011;6744;53.190;6.576;2023-05-10T02:03:28;7.63;;;7.03;;
13349;SDS011;6744;53.190;6.576;2023-05-10T02:05:56;9.10;;;8.40;;
13349;SDS011;6744;53.190;6.576;2023-05-10T02:08:22;6.83;;;6.33;;
13349;SDS011;6744;53.190;6.576;2023-05-10T02:10:49;8.17;;;7.57;;
13349;SDS011;6744;53.190;6.576;2023-05-10T02:13:16;6.93;;;6.43;;
13349;SDS011;6744;53.190;6.576;2023-05-10T02:15:43;7.07;;;6.57;;
13349;SDS011;6744;53.190;6.576;2023-05-10T02:18:09;10.57;;;9.67;;
13349;SDS011;6744;53.190;6.576;2023-05-10T02:20:35;7.47;;;6.97;;
13349;SDS011;6744;53.190;6.576;2023-05-10T02:23:02;7.20;;;6.60;;
13349;SDS011;6744;53.190;6.576;2023-05-10T02:25:28;7.67;;;7.07;;
13349;SDS011;6744;53.190;6.576;2023-05-10T02:27:55;7.23;;;6.63;;
13349;SDS011;6744;53.190;6.576;2023-05-10T02:30:21;7.67;;;7.07;;
13349;SDS011;6744;53.190;6.576;2023-05-10T02:32:47;8.40;;;7.73;;
13349;SDS011;6744;53.190;6.576;2023-05-10T02:35:14;7.30;;;6.80;;
13349;SDS011;6744;53.190;6.576;2023-05-10T02:37:40;9.83;;;9.03;;
13349;SDS011;6744;53.190;6.576;2023-05-10T02:40:06;7.93;;;7.33;;
13349;SDS011;6744;53.190;6.576;2023-05-10T02:42:33;7.40;;;6.73;;
13349;SDS011;6744;53.190;6.576;2023-05-10T02:45:02;8.40;;;7.80;;
13349;SDS011;6744;53.190;6.576;2023-05-10T02:47:30;8.50;;;7.63;;
13349;SDS011;6744;53.190;6.576;2023-05-10T02:49:56;8.40;;;7.80;;
13349;SDS011;6744;53.190;6.576;2023-05-10T02:52:23;8.07;;;7.37;;
13349;SDS011;6744;53.190;6.576;2023-05-10T02:54:52;8.70;;;8.00;;
13349;SDS011;6744;53.190;6.576;2023-05-10T02:57:22;8.90;;;8.23;;
13349;SDS011;6744;53.190;6.576;2023-05-10T02:59:51;10.43;;;9.53;;
13349;SDS011;6744;53.190;6.576;2023-05-10T03:02:16;9.33;;;8.60;;
13349;SDS011;6744;53.190;6.576;2023-05-10T03:04:42;9.63;;;8.83;;
13349;SDS011;6744;53.190;6.576;2023-05-10T03:07:07;9.60;;;8.80;;
13349;SDS011;6744;53.190;6.576;2023-05-10T03:09:33;11.17;;;10.17;;
13349;SDS011;6744;53.190;6.576;2023-05-10T03:14:53;9.10;;;8.40;;
13349;SDS011;6744;53.190;6.576;2023-05-10T03:17:25;10.33;;;9.43;;
13349;SDS011;6744;53.190;6.576;2023-05-10T03:20:04;11.27;;;10.30;;
13349;SDS011;6744;53.190;6.576;2023-05-10T03:22:44;9.90;;;9.10;;
13349;SDS011;6744;53.190;6.576;2023-05-10T03:25:11;10.23;;;9.33;;
13349;SDS011;6744;53.190;6.576;2023-05-10T03:27:39;13.50;;;12.30;;
13349;SDS011;6744;53.190;6.576;2023-05-10T03:30:05;11.00;;;10.00;;
13349;SDS011;6744;53.190;6.576;2023-05-10T03:32:33;12.90;;;11.80;;
13349;SDS011;6744;53.190;6.576;2023-05-10T03:34:59;11.50;;;10.60;;
13349;SDS011;6744;53.190;6.576;2023-05-10T03:37:25;14.53;;;13.13;;
13349;SDS011;6744;53.190;6.576;2023-05-10T03:39:50;12.90;;;11.70;;
13349;SDS011;6744;53.190;6.576;2023-05-10T03:42:15;11.93;;;10.83;;
13349;SDS011;6744;53.190;6.576;2023-05-10T03:44:42;12.67;;;11.47;;
13349;SDS011;6744;53.190;6.576;2023-05-10T03:47:08;14.87;;;13.47;;
13349;SDS011;6744;53.190;6.576;2023-05-10T03:49:33;13.80;;;12.60;;
13349;SDS011;6744;53.190;6.576;2023-05-10T03:51:58;14.53;;;13.13;;
13349;SDS011;6744;53.190;6.576;2023-05-10T03:54:24;14.57;;;13.17;;
13349;SDS011;6744;53.190;6.576;2023-05-10T03:56:49;14.13;;;12.73;;
13349;SDS011;6744;53.190;6.576;2023-05-10T03:59:14;15.43;;;13.83;;
13349;SDS011;6744;53.190;6.576;2023-05-10T04:01:40;14.07;;;12.67;;
13349;SDS011;6744;53.190;6.576;2023-05-10T04:04:05;15.60;;;14.10;;
13349;SDS011;6744;53.190;6.576;2023-05-10T04:06:30;15.40;;;13.80;;
13349;SDS011;6744;53.190;6.576;2023-05-10T04:08:56;16.27;;;14.50;;
13349;SDS011;6744;53.190;6.576;2023-05-10T04:11:24;14.17;;;12.77;;
13349;SDS011;6744;53.190;6.576;2023-05-10T04:13:50;18.03;;;15.77;;
13349;SDS011;6744;53.190;6.576;2023-05-10T04:16:15;15.73;;;14.10;;
13349;SDS011;6744;53.190;6.576;2023-05-10T04:18:40;15.53;;;13.83;;
13349;SDS011;6744;53.190;6.576;2023-05-10T04:21:10;14.87;;;13.30;;
13349;SDS011;6744;53.190;6.576;2023-05-10T04:23:39;17.30;;;13.77;;
13349;SDS011;6744;53.190;6.576;2023-05-10T04:26:04;14.67;;;13.10;;
13349;SDS011;6744;53.190;6.576;2023-05-10T04:28:30;17.07;;;15.10;;
13349;SDS011;6744;53.190;6.576;2023-05-10T04:31:04;13.00;;;11.70;;
13349;SDS011;6744;53.190;6.576;2023-05-10T04:33:31;12.73;;;11.53;;
13349;SDS011;6744;53.190;6.576;2023-05-10T04:35:57;11.60;;;10.40;;
13349;SDS011;6744;53.190;6.576;2023-05-10T04:38:22;10.83;;;9.73;;
13349;SDS011;6744;53.190;6.576;2023-05-10T04:40:47;10.27;;;9.27;;
13349;SDS011;6744;53.190;6.576;2023-05-10T04:43:13;8.50;;;7.63;;
13349;SDS011;6744;53.190;6.576;2023-05-10T04:45:38;6.10;;;5.60;;
13349;SDS011;6744;53.190;6.576;2023-05-10T04:48:04;4.90;;;4.50;;
13349;SDS011;6744;53.190;6.576;2023-05-10T04:50:30;4.40;;;4.00;;
13349;SDS011;6744;53.190;6.576;2023-05-10T04:52:55;4.33;;;4.03;;
13349;SDS011;6744;53.190;6.576;2023-05-10T04:55:21;3.60;;;3.30;;
13349;SDS011;6744;53.190;6.576;2023-05-10T04:57:46;4.70;;;4.40;;
13349;SDS011;6744;53.190;6.576;2023-05-10T05:00:11;3.30;;;3.00;;
13349;SDS011;6744;53.190;6.576;2023-05-10T05:02:37;3.17;;;2.97;;
13349;SDS011;6744;53.190;6.576;2023-05-10T05:05:03;3.33;;;3.10;;
13349;SDS011;6744;53.190;6.576;2023-05-10T05:07:29;3.73;;;3.43;;
13349;SDS011;6744;53.190;6.576;2023-05-10T05:09:55;3.00;;;2.80;;
13349;SDS011;6744;53.190;6.576;2023-05-10T05:12:20;4.00;;;3.07;;
13349;SDS011;6744;53.190;6.576;2023-05-10T05:14:46;3.20;;;3.00;;
13349;SDS011;6744;53.190;6.576;2023-05-10T05:17:11;4.40;;;4.00;;
13349;SDS011;6744;53.190;6.576;2023-05-10T05:19:36;3.50;;;3.10;;
13349;SDS011;6744;53.190;6.576;2023-05-10T05:22:02;3.03;;;2.77;;
13349;SDS011;6744;53.190;6.576;2023-05-10T05:24:27;3.10;;;2.77;;
13349;SDS011;6744;53.190;6.576;2023-05-10T05:26:52;3.57;;;3.27;;
13349;SDS011;6744;53.190;6.576;2023-05-10T05:29:18;3.63;;;3.10;;
13349;SDS011;6744;53.190;6.576;2023-05-10T05:31:43;4.00;;;3.60;;
13349;SDS011;6744;53.190;6.576;2023-05-10T05:34:09;2.97;;;2.77;;
13349;SDS011;6744;53.190;6.576;2023-05-10T05:36:35;3.73;;;3.43;;
13349;SDS011;6744;53.190;6.576;2023-05-10T05:39:03;3.27;;;3.00;;
13349;SDS011;6744;53.190;6.576;2023-05-10T05:41:28;3.47;;;3.17;;
13349;SDS011;6744;53.190;6.576;2023-05-10T05:43:53;3.73;;;3.37;;
13349;SDS011;6744;53.190;6.576;2023-05-10T05:46:19;3.73;;;3.40;;
13349;SDS011;6744;53.190;6.576;2023-05-10T05:48:44;3.47;;;3.17;;
13349;SDS011;6744;53.190;6.576;2023-05-10T05:51:09;3.60;;;3.30;;
13349;SDS011;6744;53.190;6.576;2023-05-10T05:53:35;3.80;;;3.50;;
13349;SDS011;6744;53.190;6.576;2023-05-10T05:56:01;4.57;;;4.10;;
13349;SDS011;6744;53.190;6.576;2023-05-10T05:58:26;4.03;;;3.73;;
13349;SDS011;6744;53.190;6.576;2023-05-10T06:00:52;4.40;;;4.10;;
13349;SDS011;6744;53.190;6.576;2023-05-10T06:03:17;4.23;;;3.93;;
13349;SDS011;6744;53.190;6.576;2023-05-10T06:05:43;4.20;;;3.87;;
13349;SDS011;6744;53.190;6.576;2023-05-10T06:08:08;4.90;;;4.50;;
13349;SDS011;6744;53.190;6.576;2023-05-10T06:10:34;5.07;;;4.67;;
13349;SDS011;6744;53.190;6.576;2023-05-10T06:13:00;4.53;;;4.13;;
13349;SDS011;6744;53.190;6.576;2023-05-10T06:15:25;4.20;;;3.90;;
13349;SDS011;6744;53.190;6.576;2023-05-10T06:17:51;4.13;;;3.83;;
13349;SDS011;6744;53.190;6.576;2023-05-10T06:20:16;3.60;;;3.30;;
13349;SDS011;6744;53.190;6.576;2023-05-10T06:22:41;3.33;;;3.03;;
13349;SDS011;6744;53.190;6.576;2023-05-10T06:25:07;2.67;;;2.10;;
13349;SDS011;6744;53.190;6.576;2023-05-10T06:27:33;1.90;;;1.80;;
13349;SDS011;6744;53.190;6.576;2023-05-10T06:29:58;1.90;;;1.80;;
13349;SDS011;6744;53.190;6.576;2023-05-10T06:32:24;1.80;;;1.70;;
13349;SDS011;6744;53.190;6.576;2023-05-10T06:34:49;2.80;;;2.60;;
13349;SDS011;6744;53.190;6.576;2023-05-10T06:37:15;2.73;;;2.53;;
13349;SDS011;6744;53.190;6.576;2023-05-10T06:39:40;3.80;;;3.50;;
13349;SDS011;6744;53.190;6.576;2023-05-10T06:42:05;4.73;;;4.37;;
13349;SDS011;6744;53.190;6.576;2023-05-10T06:44:31;4.77;;;4.37;;
13349;SDS011;6744;53.190;6.576;2023-05-10T06:46:56;6.97;;;6.37;;
13349;SDS011;6744;53.190;6.576;2023-05-10T06:49:21;7.10;;;6.50;;
13349;SDS011;6744;53.190;6.576;2023-05-10T06:51:47;6.87;;;6.27;;
13349;SDS011;6744;53.190;6.576;2023-05-10T06:54:13;6.07;;;5.60;;
13349;SDS011;6744;53.190;6.576;2023-05-10T06:56:38;5.80;;;5.30;;
13349;SDS011;6744;53.190;6.576;2023-05-10T06:59:04;4.93;;;4.53;;
13349;SDS011;6744;53.190;6.576;2023-05-10T07:01:29;6.63;;;5.97;;
13349;SDS011;6744;53.190;6.576;2023-05-10T07:03:54;7.00;;;6.30;;
13349;SDS011;6744;53.190;6.576;2023-05-10T07:06:20;5.33;;;4.83;;
13349;SDS011;6744;53.190;6.576;2023-05-10T07:08:45;4.97;;;4.57;;
13349;SDS011;6744;53.190;6.576;2023-05-10T07:11:11;5.50;;;5.00;;
13349;SDS011;6744;53.190;6.576;2023-05-10T07:13:36;4.53;;;4.13;;
13349;SDS011;6744;53.190;6.576;2023-05-10T07:16:04;6.77;;;4.97;;
13349;SDS011;6744;53.190;6.576;2023-05-10T07:18:31;4.70;;;4.30;;
13349;SDS011;6744;53.190;6.576;2023-05-10T07:20:56;4.10;;;3.70;;
13349;SDS011;6744;53.190;6.576;2023-05-10T07:23:22;3.93;;;3.63;;
13349;SDS011;6744;53.190;6.576;2023-05-10T07:25:47;3.40;;;3.10;;
13349;SDS011;6744;53.190;6.576;2023-05-10T07:28:14;3.37;;;3.07;;
13349;SDS011;6744;53.190;6.576;2023-05-10T07:30:39;2.77;;;2.57;;
13349;SDS011;6744;53.190;6.576;2023-05-10T07:33:05;2.63;;;2.43;;
13349;SDS011;6744;53.190;6.576;2023-05-10T07:35:30;3.00;;;2.80;;
13349;SDS011;6744;53.190;6.576;2023-05-10T07:37:55;2.97;;;2.63;;
13349;SDS011;6744;53.190;6.576;2023-05-10T07:40:21;3.90;;;2.73;;
13349;SDS011;6744;53.190;6.576;2023-05-10T07:42:46;3.13;;;2.93;;
13349;SDS011;6744;53.190;6.576;2023-05-10T07:45:12;3.00;;;2.80;;
13349;SDS011;6744;53.190;6.576;2023-05-10T07:47:37;2.73;;;2.53;;
13349;SDS011;6744;53.190;6.576;2023-05-10T07:50:02;2.73;;;2.53;;
13349;SDS011;6744;53.190;6.576;2023-05-10T07:52:29;3.60;;;3.23;;
13349;SDS011;6744;53.190;6.576;2023-05-10T07:54:54;2.67;;;2.47;;
13349;SDS011;6744;53.190;6.576;2023-05-10T07:57:21;2.03;;;1.93;;
13349;SDS011;6744;53.190;6.576;2023-05-10T07:59:47;2.30;;;2.10;;
13349;SDS011;6744;53.190;6.576;2023-05-10T08:02:12;1.60;;;1.50;;
13349;SDS011;6744;53.190;6.576;2023-05-10T08:04:37;2.30;;;2.20;;
13349;SDS011;6744;53.190;6.576;2023-05-10T08:07:03;2.30;;;2.20;;
13349;SDS011;6744;53.190;6.576;2023-05-10T08:09:28;2.20;;;2.10;;
13349;SDS011;6744;53.190;6.576;2023-05-10T08:11:53;3.50;;;2.30;;
13349;SDS011;6744;53.190;6.576;2023-05-10T08:14:19;3.33;;;3.03;;
13349;SDS011;6744;53.190;6.576;2023-05-10T08:16:45;3.07;;;2.87;;
13349;SDS011;6744;53.190;6.576;2023-05-10T08:19:10;3.07;;;2.87;;
13349;SDS011;6744;53.190;6.576;2023-05-10T08:21:36;2.70;;;2.50;;
13349;SDS011;6744;53.190;6.576;2023-05-10T08:24:01;3.40;;;3.07;;
13349;SDS011;6744;53.190;6.576;2023-05-10T08:26:27;2.87;;;2.60;;
13349;SDS011;6744;53.190;6.576;2023-05-10T08:28:52;3.03;;;2.73;;
13349;SDS011;6744;53.190;6.576;2023-05-10T08:31:18;2.80;;;2.60;;
13349;SDS011;6744;53.190;6.576;2023-05-10T08:33:43;2.20;;;2.10;;
13349;SDS011;6744;53.190;6.576;2023-05-10T08:36:09;3.17;;;2.80;;
13349;SDS011;6744;53.190;6.576;2023-05-10T08:38:34;3.20;;;3.00;;
13349;SDS011;6744;53.190;6.576;2023-05-10T08:40:59;2.80;;;2.33;;
13349;SDS011;6744;53.190;6.576;2023-05-10T08:43:27;2.77;;;2.57;;
13349;SDS011;6744;53.190;6.576;2023-05-10T08:45:56;2.43;;;2.23;;
13349;SDS011;6744;53.190;6.576;2023-05-10T08:48:25;3.03;;;2.83;;
13349;SDS011;6744;53.190;6.576;2023-05-10T08:50:54;2.97;;;2.77;;
13349;SDS011;6744;53.190;6.576;2023-05-10T08:53:22;2.83;;;2.63;;
13349;SDS011;6744;53.190;6.576;2023-05-10T08:55:50;2.80;;;2.60;;
13349;SDS011;6744;53.190;6.576;2023-05-10T08:58:15;3.10;;;2.90;;
13349;SDS011;6744;53.190;6.576;2023-05-10T09:00:41;3.77;;;3.47;;
13349;SDS011;6744;53.190;6.576;2023-05-10T09:03:06;3.60;;;3.30;;
13349;SDS011;6744;53.190;6.576;2023-05-10T09:05:32;3.70;;;3.40;;
13349;SDS011;6744;53.190;6.576;2023-05-10T09:07:57;4.57;;;3.50;;
13349;SDS011;6744;53.190;6.576;2023-05-10T09:10:25;4.97;;;3.50;;
13349;SDS011;6744;53.190;6.576;2023-05-10T09:12:52;4.20;;;3.80;;
13349;SDS011;6744;53.190;6.576;2023-05-10T09:15:18;4.47;;;4.07;;
13349;SDS011;6744;53.190;6.576;2023-05-10T09:17:45;5.53;;;4.50;;
13349;SDS011;6744;53.190;6.576;2023-05-10T09:20:10;3.67;;;3.37;;
13349;SDS011;6744;53.190;6.576;2023-05-10T09:22:36;3.33;;;3.10;;
13349;SDS011;6744;53.190;6.576;2023-05-10T09:25:20;4.40;;;4.00;;
13349;SDS011;6744;53.190;6.576;2023-05-10T09:27:47;3.70;;;3.40;;
13349;SDS011;6744;53.190;6.576;2023-05-10T09:30:25;4.10;;;3.80;;
13349;SDS011;6744;53.190;6.576;2023-05-10T09:32:52;4.13;;;3.73;;
13349;SDS011;6744;53.190;6.576;2023-05-10T09:35:19;4.40;;;4.00;;
13349;SDS011;6744;53.190;6.576;2023-05-10T09:37:47;3.90;;;3.60;;
13349;SDS011;6744;53.190;6.576;2023-05-10T09:40:15;4.07;;;3.67;;
13349;SDS011;6744;53.190;6.576;2023-05-10T09:42:42;4.00;;;3.70;;
13349;SDS011;6744;53.190;6.576;2023-05-10T09:45:15;4.03;;;3.60;;
13349;SDS011;6744;53.190;6.576;2023-05-10T09:47:40;4.10;;;3.80;;
13349;SDS011;6744;53.190;6.576;2023-05-10T09:50:06;4.67;;;4.37;;
13349;SDS011;6744;53.190;6.576;2023-05-10T09:55:38;5.00;;;4.50;;
13349;SDS011;6744;53.190;6.576;2023-05-10T09:58:03;4.77;;;4.37;;
13349;SDS011;6744;53.190;6.576;2023-05-10T10:00:35;5.17;;;4.77;;
13349;SDS011;6744;53.190;6.576;2023-05-10T10:03:01;4.47;;;4.10;;
13349;SDS011;6744;53.190;6.576;2023-05-10T10:05:31;5.30;;;4.80;;
13349;SDS011;6744;53.190;6.576;2023-05-10T10:07:58;5.10;;;4.70;;
13349;SDS011;6744;53.190;6.576;2023-05-10T10:10:24;4.90;;;4.50;;
13349;SDS011;6744;53.190;6.576;2023-05-10T10:12:50;4.70;;;4.30;;
13349;SDS011;6744;53.190;6.576;2023-05-10T10:15:16;5.53;;;5.03;;
13349;SDS011;6744;53.190;6.576;2023-05-10T10:17:41;4.97;;;4.57;;
13349;SDS011;6744;53.190;6.576;2023-05-10T10:20:08;5.33;;;4.83;;
13349;SDS011;6744;53.190;6.576;2023-05-10T10:22:34;5.80;;;5.37;;
13349;SDS011;6744;53.190;6.576;2023-05-10T10:25:00;4.70;;;4.40;;
13349;SDS011;6744;53.190;6.576;2023-05-10T10:35:19;4.70;;;4.30;;
13349;SDS011;6744;53.190;6.576;2023-05-10T10:37:45;5.73;;;4.67;;
13349;SDS011;6744;53.190;6.576;2023-05-10T10:40:24;5.07;;;4.67;;
13349;SDS011;6744;53.190;6.576;2023-05-10T10:42:51;5.40;;;4.90;;
13349;SDS011;6744;53.190;6.576;2023-05-10T10:45:16;5.83;;;5.27;;
13349;SDS011;6744;53.190;6.576;2023-05-10T10:47:42;6.10;;;5.50;;
13349;SDS011;6744;53.190;6.576;2023-05-10T10:50:08;5.67;;;5.17;;
13349;SDS011;6744;53.190;6.576;2023-05-10T10:57:49;5.50;;;5.00;;
13349;SDS011;6744;53.190;6.576;2023-05-10T11:00:26;5.77;;;5.37;;
13349;SDS011;6744;53.190;6.576;2023-05-10T11:03:04;5.47;;;5.00;;
13349;SDS011;6744;53.190;6.576;2023-05-10T11:05:44;5.33;;;4.93;;
13349;SDS011;6744;53.190;6.576;2023-05-10T11:08:26;6.00;;;5.50;;
13349;SDS011;6744;53.190;6.576;2023-05-10T11:13:43;9.03;;;6.57;;
13349;SDS011;6744;53.190;6.576;2023-05-10T11:16:13;5.20;;;4.80;;
13349;SDS011;6744;53.190;6.576;2023-05-10T11:18:38;6.83;;;6.13;;
13349;SDS011;6744;53.190;6.576;2023-05-10T11:21:04;5.40;;;5.00;;
13349;SDS011;6744;53.190;6.576;2023-05-10T11:26:08;5.20;;;4.80;;
13349;SDS011;6744;53.190;6.576;2023-05-10T11:28:34;5.23;;;4.73;;
13349;SDS011;6744;53.190;6.576;2023-05-10T11:31:07;5.87;;;5.37;;
13349;SDS011;6744;53.190;6.576;2023-05-10T11:33:41;6.40;;;5.80;;
13349;SDS011;6744;53.190;6.576;2023-05-10T11:36:10;6.37;;;5.77;;
13349;SDS011;6744;53.190;6.576;2023-05-10T11:38:36;7.17;;;6.17;;
13349;SDS011;6744;53.190;6.576;2023-05-10T11:41:01;7.37;;;6.70;;
13349;SDS011;6744;53.190;6.576;2023-05-10T11:43:27;6.50;;;6.00;;
13349;SDS011;6744;53.190;6.576;2023-05-10T11:45:55;6.80;;;6.20;;
13349;SDS011;6744;53.190;6.576;2023-05-10T11:48:21;7.83;;;7.13;;
13349;SDS011;6744;53.190;6.576;2023-05-10T11:50:48;7.23;;;6.60;;
13349;SDS011;6744;53.190;6.576;2023-05-10T11:53:14;7.60;;;6.90;;
13349;SDS011;6744;53.190;6.576;2023-05-10T11:55:39;6.93;;;6.43;;
13349;SDS011;6744;53.190;6.576;2023-05-10T11:58:05;7.37;;;6.67;;
13349;SDS011;6744;53.190;6.576;2023-05-10T12:00:30;8.07;;;7.37;;
13349;SDS011;6744;53.190;6.576;2023-05-10T12:02:56;7.17;;;6.57;;
13349;SDS011;6744;53.190;6.576;2023-05-10T12:05:22;7.77;;;7.00;;
13349;SDS011;6744;53.190;6.576;2023-05-10T12:07:47;8.47;;;7.67;;
13349;SDS011;6744;53.190;6.576;2023-05-10T12:10:13;7.67;;;6.97;;
13349;SDS011;6744;53.190;6.576;2023-05-10T12:12:46;8.07;;;7.33;;
13349;SDS011;6744;53.190;6.576;2023-05-10T12:15:21;8.80;;;8.00;;
13349;SDS011;6744;53.190;6.576;2023-05-10T12:17:48;7.43;;;6.83;;
13349;SDS011;6744;53.190;6.576;2023-05-10T12:20:14;7.70;;;7.00;;
13349;SDS011;6744;53.190;6.576;2023-05-10T12:22:53;8.93;;;8.03;;
13349;SDS011;6744;53.190;6.576;2023-05-10T12:25:20;8.17;;;7.40;;
13349;SDS011;6744;53.190;6.576;2023-05-10T12:27:56;8.47;;;7.63;;
13349;SDS011;6744;53.190;6.576;2023-05-10T12:30:25;8.07;;;7.27;;
13349;SDS011;6744;53.190;6.576;2023-05-10T12:32:51;8.80;;;8.00;;
13349;SDS011;6744;53.190;6.576;2023-05-10T12:35:17;9.77;;;8.23;;
13349;SDS011;6744;53.190;6.576;2023-05-10T12:37:46;8.33;;;7.53;;
13349;SDS011;6744;53.190;6.576;2023-05-10T12:40:12;9.20;;;8.30;;
13349;SDS011;6744;53.190;6.576;2023-05-10T12:42:38;9.03;;;8.17;;
13349;SDS011;6744;53.190;6.576;2023-05-10T12:45:04;9.13;;;8.27;;
13349;SDS011;6744;53.190;6.576;2023-05-10T12:47:30;8.87;;;8.00;;
13349;SDS011;6744;53.190;6.576;2023-05-10T12:49:56;9.20;;;8.40;;
13349;SDS011;6744;53.190;6.576;2023-05-10T12:52:22;7.77;;;7.03;;
13349;SDS011;6744;53.190;6.576;2023-05-10T12:54:47;8.93;;;8.13;;
13349;SDS011;6744;53.190;6.576;2023-05-10T12:57:13;8.83;;;8.03;;
13349;SDS011;6744;53.190;6.576;2023-05-10T12:59:38;8.60;;;7.80;;
13349;SDS011;6744;53.190;6.576;2023-05-10T13:02:04;8.30;;;7.50;;
13349;SDS011;6744;53.190;6.576;2023-05-10T13:04:29;8.20;;;7.40;;
13349;SDS011;6744;53.190;6.576;2023-05-10T13:06:54;7.53;;;6.83;;
13349;SDS011;6744;53.190;6.576;2023-05-10T13:09:23;7.10;;;6.40;;
13349;SDS011;6744;53.190;6.576;2023-05-10T13:11:49;7.23;;;6.53;;
13349;SDS011;6744;53.190;6.576;2023-05-10T13:14:15;8.17;;;7.40;;
13349;SDS011;6744;53.190;6.576;2023-05-10T13:16:40;7.30;;;6.60;;
13349;SDS011;6744;53.190;6.576;2023-05-10T13:19:06;7.03;;;6.43;;
13349;SDS011;6744;53.190;6.576;2023-05-10T13:21:31;7.03;;;6.33;;
13349;SDS011;6744;53.190;6.576;2023-05-10T13:23:57;5.83;;;5.20;;
13349;SDS011;6744;53.190;6.576;2023-05-10T13:26:23;7.00;;;6.40;;
13349;SDS011;6744;53.190;6.576;2023-05-10T13:28:48;8.43;;;7.63;;
13349;SDS011;6744;53.190;6.576;2023-05-10T13:31:14;7.63;;;6.97;;
13349;SDS011;6744;53.190;6.576;2023-05-10T13:33:39;6.93;;;6.37;;
13349;SDS011;6744;53.190;6.576;2023-05-10T13:36:05;7.83;;;7.13;;
13349;SDS011;6744;53.190;6.576;2023-05-10T13:38:31;7.60;;;6.90;;
13349;SDS011;6744;53.190;6.576;2023-05-10T13:40:56;8.07;;;7.37;;
13349;SDS011;6744;53.190;6.576;2023-05-10T13:43:22;9.30;;;8.50;;
13349;SDS011;6744;53.190;6.576;2023-05-10T13:45:48;8.27;;;7.47;;
13349;SDS011;6744;53.190;6.576;2023-05-10T13:48:13;7.03;;;6.40;;
13349;SDS011;6744;53.190;6.576;2023-05-10T13:50:39;7.40;;;6.70;;
13349;SDS011;6744;53.190;6.576;2023-05-10T13:53:05;8.13;;;7.43;;
13349;SDS011;6744;53.190;6.576;2023-05-10T13:55:30;8.80;;;7.93;;
13349;SDS011;6744;53.190;6.576;2023-05-10T13:57:55;7.90;;;7.20;;
13349;SDS011;6744;53.190;6.576;2023-05-10T14:00:21;8.23;;;7.53;;
13349;SDS011;6744;53.190;6.576;2023-05-10T14:02:46;8.40;;;7.60;;
13349;SDS011;6744;53.190;6.576;2023-05-10T14:05:12;8.97;;;8.13;;
13349;SDS011;6744;53.190;6.576;2023-05-10T14:07:37;8.67;;;7.80;;
13349;SDS011;6744;53.190;6.576;2023-05-10T14:10:03;8.83;;;7.93;;
13349;SDS011;6744;53.190;6.576;2023-05-10T14:12:28;8.40;;;7.70;;
13349;SDS011;6744;53.190;6.576;2023-05-10T14:14:54;8.00;;;7.30;;
13349;SDS011;6744;53.190;6.576;2023-05-10T14:17:19;7.70;;;6.93;;
13349;SDS011;6744;53.190;6.576;2023-05-10T14:19:44;8.10;;;7.30;;
13349;SDS011;6744;53.190;6.576;2023-05-10T14:22:10;9.00;;;8.13;;
13349;SDS011;6744;53.190;6.576;2023-05-10T14:24:35;7.80;;;7.10;;
13349;SDS011;6744;53.190;6.576;2023-05-10T14:27:00;8.33;;;7.53;;
13349;SDS011;6744;53.190;6.576;2023-05-10T14:29:26;8.53;;;7.83;;
13349;SDS011;6744;53.190;6.576;2023-05-10T14:31:51;8.30;;;7.53;;
13349;SDS011;6744;53.190;6.576;2023-05-10T14:34:16;8.90;;;8.00;;
13349;SDS011;6744;53.190;6.576;2023-05-10T14:36:42;8.60;;;7.80;;
13349;SDS011;6744;53.190;6.576;2023-05-10T14:39:07;8.67;;;7.77;;
13349;SDS011;6744;53.190;6.576;2023-05-10T14:41:34;8.60;;;7.80;;
13349;SDS011;6744;53.190;6.576;2023-05-10T14:44:00;10.13;;;9.13;;
13349;SDS011;6744;53.190;6.576;2023-05-10T14:46:26;10.20;;;9.30;;
13349;SDS011;6744;53.190;6.576;2023-05-10T14:48:52;9.10;;;8.30;;
13349;SDS011;6744;53.190;6.576;2023-05-10T14:51:17;8.93;;;8.10;;
13349;SDS011;6744;53.190;6.576;2023-05-10T14:53:46;8.87;;;7.97;;
13349;SDS011;6744;53.190;6.576;2023-05-10T14:56:12;9.10;;;8.20;;
13349;SDS011;6744;53.190;6.576;2023-05-10T14:58:37;9.20;;;8.33;;
13349;SDS011;6744;53.190;6.576;2023-05-10T15:01:02;8.47;;;7.77;;
13349;SDS011;6744;53.190;6.576;2023-05-10T15:03:28;8.50;;;7.70;;
13349;SDS011;6744;53.190;6.576;2023-05-10T15:05:53;8.40;;;7.70;;
13349;SDS011;6744;53.190;6.576;2023-05-10T15:08:20;7.70;;;6.90;;
13349;SDS011;6744;53.190;6.576;2023-05-10T15:10:46;9.00;;;8.17;;
13349;SDS011;6744;53.190;6.576;2023-05-10T15:13:11;8.27;;;7.57;;
13349;SDS011;6744;53.190;6.576;2023-05-10T15:15:37;9.70;;;8.80;;
13349;SDS011;6744;53.190;6.576;2023-05-10T15:18:02;8.93;;;8.13;;
13349;SDS011;6744;53.190;6.576;2023-05-10T15:20:28;9.10;;;8.30;;
13349;SDS011;6744;53.190;6.576;2023-05-10T15:22:53;8.93;;;8.13;;
13349;SDS011;6744;53.190;6.576;2023-05-10T15:25:18;8.70;;;8.00;;
13349;SDS011;6744;53.190;6.576;2023-05-10T15:27:44;9.47;;;8.63;;
13349;SDS011;6744;53.190;6.576;2023-05-10T15:30:10;9.00;;;8.20;;
13349;SDS011;6744;53.190;6.576;2023-05-10T15:32:35;9.07;;;8.27;;
13349;SDS011;6744;53.190;6.576;2023-05-10T15:35:02;9.60;;;8.70;;
13349;SDS011;6744;53.190;6.576;2023-05-10T15:37:27;9.90;;;8.67;;
13349;SDS011;6744;53.190;6.576;2023-05-10T15:39:53;8.80;;;8.00;;
13349;SDS011;6744;53.190;6.576;2023-05-10T15:42:18;9.83;;;8.93;;